sensor_id;sensor_type;location;lat;lon;timestamp;P1;durP1;ratioP1;P2;durP2;ratioP2
803;SDS011;25687;49.976;8.240;2023-11-19T00:00:47;1.30;;;1.20;;
803;SDS011;25687;49.976;8.240;2023-11-19T00:03:12;1.53;;;1.40;;
803;SDS011;25687;49.976;8.240;2023-11-19T00:05:38;1.97;;;1.37;;
803;SDS011;25687;49.976;8.240;2023-11-19T00:08:03;1.70;;;1.40;;
803;SDS011;25687;49.976;8.240;2023-11-19T00:10:30;1.80;;;1.40;;
803;SDS011;25687;49.976;8.240;2023-11-19T00:12:56;1.63;;;1.53;;
803;SDS011;25687;49.976;8.240;2023-11-19T00:15:22;1.60;;;1.50;;
803;SDS011;25687;49.976;8.240;2023-11-19T00:17:49;3.07;;;1.83;;
803;SDS011;25687;49.976;8.240;2023-11-19T00:20:15;2.43;;;1.73;;
803;SDS011;25687;49.976;8.240;2023-11-19T00:22:42;2.63;;;1.83;;
803;SDS011;25687;49.976;8.240;2023-11-19T00:25:08;2.00;;;1.80;;
803;SDS011;25687;49.976;8.240;2023-11-19T00:27:34;1.80;;;1.70;;
803;SDS011;25687;49.976;8.240;2023-11-19T00:30:00;1.70;;;1.60;;
803;SDS011;25687;49.976;8.240;2023-11-19T00:32:25;2.70;;;1.30;;
803;SDS011;25687;49.976;8.240;2023-11-19T00:34:51;2.90;;;1.77;;
803;SDS011;25687;49.976;8.240;2023-11-19T00:37:16;2.77;;;1.70;;
803;SDS011;25687;49.976;8.240;2023-11-19T00:39:42;2.07;;;1.50;;
803;SDS011;25687;49.976;8.240;2023-11-19T00:42:08;2.60;;;1.80;;
803;SDS011;25687;49.976;8.240;2023-11-19T00:44:35;3.03;;;1.80;;
803;SDS011;25687;49.976;8.240;2023-11-19T00:47:00;2.00;;;1.63;;
803;SDS011;25687;49.976;8.240;2023-11-19T00:49:25;1.37;;;1.27;;
803;SDS011;25687;49.976;8.240;2023-11-19T00:51:51;1.60;;;1.50;;
803;SDS011;25687;49.976;8.240;2023-11-19T00:54:16;3.07;;;1.87;;
803;SDS011;25687;49.976;8.240;2023-11-19T00:56:42;3.80;;;1.23;;
803;SDS011;25687;49.976;8.240;2023-11-19T00:59:07;1.80;;;1.37;;
803;SDS011;25687;49.976;8.240;2023-11-19T01:01:32;1.67;;;1.30;;
803;SDS011;25687;49.976;8.240;2023-11-19T01:03:58;1.57;;;1.47;;
803;SDS011;25687;49.976;8.240;2023-11-19T01:06:27;3.30;;;1.77;;
803;SDS011;25687;49.976;8.240;2023-11-19T01:08:53;2.17;;;1.50;;
803;SDS011;25687;49.976;8.240;2023-11-19T01:11:20;1.97;;;1.77;;
803;SDS011;25687;49.976;8.240;2023-11-19T01:13:46;2.57;;;1.70;;
803;SDS011;25687;49.976;8.240;2023-11-19T01:16:11;2.37;;;1.70;;
803;SDS011;25687;49.976;8.240;2023-11-19T01:18:37;6.20;;;1.90;;
803;SDS011;25687;49.976;8.240;2023-11-19T01:21:03;2.23;;;1.60;;
803;SDS011;25687;49.976;8.240;2023-11-19T01:23:29;2.07;;;1.87;;
803;SDS011;25687;49.976;8.240;2023-11-19T01:25:54;1.97;;;1.57;;
803;SDS011;25687;49.976;8.240;2023-11-19T01:28:19;4.00;;;1.50;;
803;SDS011;25687;49.976;8.240;2023-11-19T01:30:44;2.73;;;1.53;;
803;SDS011;25687;49.976;8.240;2023-11-19T01:33:10;1.23;;;1.10;;
803;SDS011;25687;49.976;8.240;2023-11-19T01:35:35;3.37;;;1.10;;
803;SDS011;25687;49.976;8.240;2023-11-19T01:38:00;2.20;;;1.20;;
803;SDS011;25687;49.976;8.240;2023-11-19T01:40:25;1.83;;;1.20;;
803;SDS011;25687;49.976;8.240;2023-11-19T01:42:51;1.10;;;1.00;;
803;SDS011;25687;49.976;8.240;2023-11-19T01:45:27;1.37;;;1.27;;
803;SDS011;25687;49.976;8.240;2023-11-19T01:47:53;1.07;;;0.97;;
803;SDS011;25687;49.976;8.240;2023-11-19T01:50:19;1.23;;;1.00;;
803;SDS011;25687;49.976;8.240;2023-11-19T01:52:45;1.30;;;1.20;;
803;SDS011;25687;49.976;8.240;2023-11-19T01:55:11;1.00;;;1.00;;
803;SDS011;25687;49.976;8.240;2023-11-19T01:57:37;0.77;;;0.77;;
803;SDS011;25687;49.976;8.240;2023-11-19T02:00:06;1.47;;;1.17;;
803;SDS011;25687;49.976;8.240;2023-11-19T02:02:31;0.90;;;0.90;;
803;SDS011;25687;49.976;8.240;2023-11-19T02:04:57;0.90;;;0.90;;
803;SDS011;25687;49.976;8.240;2023-11-19T02:07:22;2.07;;;0.80;;
803;SDS011;25687;49.976;8.240;2023-11-19T02:09:49;0.90;;;0.90;;
803;SDS011;25687;49.976;8.240;2023-11-19T02:12:14;1.23;;;1.00;;
803;SDS011;25687;49.976;8.240;2023-11-19T02:14:40;0.70;;;0.70;;
803;SDS011;25687;49.976;8.240;2023-11-19T02:17:05;0.80;;;0.80;;
803;SDS011;25687;49.976;8.240;2023-11-19T02:19:30;0.57;;;0.57;;
803;SDS011;25687;49.976;8.240;2023-11-19T02:21:56;2.20;;;0.77;;
803;SDS011;25687;49.976;8.240;2023-11-19T02:24:21;0.90;;;0.90;;
803;SDS011;25687;49.976;8.240;2023-11-19T02:27:07;0.60;;;0.60;;
803;SDS011;25687;49.976;8.240;2023-11-19T02:29:35;3.13;;;0.70;;
803;SDS011;25687;49.976;8.240;2023-11-19T02:32:00;0.60;;;0.60;;
803;SDS011;25687;49.976;8.240;2023-11-19T02:34:26;1.13;;;0.60;;
803;SDS011;25687;49.976;8.240;2023-11-19T02:36:52;0.70;;;0.70;;
803;SDS011;25687;49.976;8.240;2023-11-19T02:39:18;0.77;;;0.70;;
803;SDS011;25687;49.976;8.240;2023-11-19T02:41:46;0.60;;;0.60;;
803;SDS011;25687;49.976;8.240;2023-11-19T02:44:15;0.80;;;0.80;;
803;SDS011;25687;49.976;8.240;2023-11-19T02:46:41;0.73;;;0.73;;
803;SDS011;25687;49.976;8.240;2023-11-19T02:49:07;0.60;;;0.60;;
803;SDS011;25687;49.976;8.240;2023-11-19T02:51:32;0.70;;;0.70;;
803;SDS011;25687;49.976;8.240;2023-11-19T02:53:59;0.80;;;0.80;;
803;SDS011;25687;49.976;8.240;2023-11-19T02:56:24;0.87;;;0.87;;
803;SDS011;25687;49.976;8.240;2023-11-19T02:58:51;0.70;;;0.70;;
803;SDS011;25687;49.976;8.240;2023-11-19T03:01:25;2.00;;;0.60;;
803;SDS011;25687;49.976;8.240;2023-11-19T03:03:59;0.80;;;0.60;;
803;SDS011;25687;49.976;8.240;2023-11-19T03:06:26;1.97;;;0.50;;
803;SDS011;25687;49.976;8.240;2023-11-19T03:08:52;2.10;;;0.53;;
803;SDS011;25687;49.976;8.240;2023-11-19T03:11:17;1.13;;;0.63;;
803;SDS011;25687;49.976;8.240;2023-11-19T03:13:42;0.70;;;0.70;;
803;SDS011;25687;49.976;8.240;2023-11-19T03:16:08;1.47;;;0.67;;
803;SDS011;25687;49.976;8.240;2023-11-19T03:18:33;0.90;;;0.83;;
803;SDS011;25687;49.976;8.240;2023-11-19T03:20:58;3.47;;;0.67;;
803;SDS011;25687;49.976;8.240;2023-11-19T03:23:24;0.60;;;0.60;;
803;SDS011;25687;49.976;8.240;2023-11-19T03:25:53;0.70;;;0.70;;
803;SDS011;25687;49.976;8.240;2023-11-19T03:28:19;0.70;;;0.70;;
803;SDS011;25687;49.976;8.240;2023-11-19T03:30:44;0.70;;;0.60;;
803;SDS011;25687;49.976;8.240;2023-11-19T03:33:09;1.87;;;0.80;;
803;SDS011;25687;49.976;8.240;2023-11-19T03:35:35;1.93;;;0.80;;
803;SDS011;25687;49.976;8.240;2023-11-19T03:38:00;1.70;;;0.97;;
803;SDS011;25687;49.976;8.240;2023-11-19T03:40:26;0.70;;;0.70;;
803;SDS011;25687;49.976;8.240;2023-11-19T03:42:51;0.90;;;0.90;;
803;SDS011;25687;49.976;8.240;2023-11-19T03:45:16;1.43;;;0.77;;
803;SDS011;25687;49.976;8.240;2023-11-19T03:47:42;1.10;;;1.00;;
803;SDS011;25687;49.976;8.240;2023-11-19T03:50:08;0.90;;;0.90;;
803;SDS011;25687;49.976;8.240;2023-11-19T03:52:34;1.50;;;1.00;;
803;SDS011;25687;49.976;8.240;2023-11-19T03:54:59;1.00;;;0.90;;
803;SDS011;25687;49.976;8.240;2023-11-19T03:57:27;3.47;;;0.97;;
803;SDS011;25687;49.976;8.240;2023-11-19T03:59:53;1.50;;;0.97;;
803;SDS011;25687;49.976;8.240;2023-11-19T04:02:18;1.27;;;1.17;;
803;SDS011;25687;49.976;8.240;2023-11-19T04:04:43;4.80;;;1.13;;
803;SDS011;25687;49.976;8.240;2023-11-19T04:07:08;1.20;;;1.10;;
803;SDS011;25687;49.976;8.240;2023-11-19T04:09:34;1.20;;;1.10;;
803;SDS011;25687;49.976;8.240;2023-11-19T04:11:59;0.93;;;0.93;;
803;SDS011;25687;49.976;8.240;2023-11-19T04:14:25;1.17;;;1.07;;
803;SDS011;25687;49.976;8.240;2023-11-19T04:16:51;1.30;;;1.20;;
803;SDS011;25687;49.976;8.240;2023-11-19T04:19:18;1.07;;;1.03;;
803;SDS011;25687;49.976;8.240;2023-11-19T04:21:43;3.73;;;1.57;;
803;SDS011;25687;49.976;8.240;2023-11-19T04:24:09;1.37;;;1.27;;
803;SDS011;25687;49.976;8.240;2023-11-19T04:26:42;1.23;;;1.13;;
803;SDS011;25687;49.976;8.240;2023-11-19T04:29:10;2.03;;;1.20;;
803;SDS011;25687;49.976;8.240;2023-11-19T04:31:37;1.60;;;1.20;;
803;SDS011;25687;49.976;8.240;2023-11-19T04:34:02;1.83;;;1.27;;
803;SDS011;25687;49.976;8.240;2023-11-19T04:36:27;1.30;;;1.20;;
803;SDS011;25687;49.976;8.240;2023-11-19T04:38:54;0.80;;;0.80;;
803;SDS011;25687;49.976;8.240;2023-11-19T04:41:20;1.20;;;1.00;;
803;SDS011;25687;49.976;8.240;2023-11-19T04:43:45;1.20;;;1.10;;
803;SDS011;25687;49.976;8.240;2023-11-19T04:46:10;2.30;;;1.30;;
803;SDS011;25687;49.976;8.240;2023-11-19T04:48:36;3.03;;;1.10;;
803;SDS011;25687;49.976;8.240;2023-11-19T04:51:01;1.40;;;1.30;;
803;SDS011;25687;49.976;8.240;2023-11-19T04:53:29;1.43;;;1.20;;
803;SDS011;25687;49.976;8.240;2023-11-19T04:55:55;1.23;;;1.13;;
803;SDS011;25687;49.976;8.240;2023-11-19T04:58:20;1.47;;;1.20;;
803;SDS011;25687;49.976;8.240;2023-11-19T05:00:45;2.10;;;1.30;;
803;SDS011;25687;49.976;8.240;2023-11-19T05:03:10;1.63;;;1.37;;
803;SDS011;25687;49.976;8.240;2023-11-19T05:05:36;2.43;;;1.30;;
803;SDS011;25687;49.976;8.240;2023-11-19T05:08:01;2.27;;;1.60;;
803;SDS011;25687;49.976;8.240;2023-11-19T05:10:26;1.57;;;1.20;;
803;SDS011;25687;49.976;8.240;2023-11-19T05:12:52;1.93;;;1.50;;
803;SDS011;25687;49.976;8.240;2023-11-19T05:15:17;3.20;;;2.27;;
803;SDS011;25687;49.976;8.240;2023-11-19T05:17:42;1.57;;;1.47;;
803;SDS011;25687;49.976;8.240;2023-11-19T05:20:08;1.70;;;1.60;;
803;SDS011;25687;49.976;8.240;2023-11-19T05:22:41;4.90;;;1.70;;
803;SDS011;25687;49.976;8.240;2023-11-19T05:25:07;1.67;;;1.57;;
803;SDS011;25687;49.976;8.240;2023-11-19T05:27:36;1.80;;;1.70;;
803;SDS011;25687;49.976;8.240;2023-11-19T05:30:05;1.70;;;1.60;;
803;SDS011;25687;49.976;8.240;2023-11-19T05:32:32;1.50;;;1.40;;
803;SDS011;25687;49.976;8.240;2023-11-19T05:34:58;2.20;;;2.00;;
803;SDS011;25687;49.976;8.240;2023-11-19T05:37:23;2.37;;;1.67;;
803;SDS011;25687;49.976;8.240;2023-11-19T05:39:50;1.63;;;1.47;;
803;SDS011;25687;49.976;8.240;2023-11-19T05:42:15;2.70;;;1.90;;
803;SDS011;25687;49.976;8.240;2023-11-19T05:44:41;1.93;;;1.80;;
803;SDS011;25687;49.976;8.240;2023-11-19T05:47:06;2.70;;;1.33;;
803;SDS011;25687;49.976;8.240;2023-11-19T05:49:32;1.30;;;1.20;;
803;SDS011;25687;49.976;8.240;2023-11-19T05:51:57;1.93;;;1.60;;
803;SDS011;25687;49.976;8.240;2023-11-19T05:54:23;3.30;;;2.10;;
803;SDS011;25687;49.976;8.240;2023-11-19T05:56:48;2.20;;;2.00;;
803;SDS011;25687;49.976;8.240;2023-11-19T05:59:14;2.33;;;1.80;;
803;SDS011;25687;49.976;8.240;2023-11-19T06:01:42;2.57;;;1.63;;
803;SDS011;25687;49.976;8.240;2023-11-19T06:04:11;1.87;;;1.70;;
803;SDS011;25687;49.976;8.240;2023-11-19T06:06:37;1.87;;;1.77;;
803;SDS011;25687;49.976;8.240;2023-11-19T06:09:02;3.07;;;2.03;;
803;SDS011;25687;49.976;8.240;2023-11-19T06:11:29;4.43;;;2.00;;
803;SDS011;25687;49.976;8.240;2023-11-19T06:13:54;2.53;;;2.33;;
803;SDS011;25687;49.976;8.240;2023-11-19T06:16:19;2.50;;;2.30;;
803;SDS011;25687;49.976;8.240;2023-11-19T06:18:45;2.40;;;2.20;;
803;SDS011;25687;49.976;8.240;2023-11-19T06:21:11;2.40;;;2.20;;
803;SDS011;25687;49.976;8.240;2023-11-19T06:23:37;2.43;;;2.23;;
803;SDS011;25687;49.976;8.240;2023-11-19T06:26:03;4.73;;;2.30;;
803;SDS011;25687;49.976;8.240;2023-11-19T06:28:28;1.90;;;1.80;;
803;SDS011;25687;49.976;8.240;2023-11-19T06:30:54;2.27;;;2.07;;
803;SDS011;25687;49.976;8.240;2023-11-19T06:33:19;2.40;;;2.20;;
803;SDS011;25687;49.976;8.240;2023-11-19T06:35:44;2.77;;;2.57;;
803;SDS011;25687;49.976;8.240;2023-11-19T06:38:10;3.80;;;3.00;;
803;SDS011;25687;49.976;8.240;2023-11-19T06:40:35;3.57;;;3.27;;
803;SDS011;25687;49.976;8.240;2023-11-19T06:43:00;5.00;;;4.60;;
803;SDS011;25687;49.976;8.240;2023-11-19T06:45:27;6.83;;;4.00;;
803;SDS011;25687;49.976;8.240;2023-11-19T06:47:53;7.67;;;4.57;;
803;SDS011;25687;49.976;8.240;2023-11-19T06:50:18;5.70;;;3.97;;
803;SDS011;25687;49.976;8.240;2023-11-19T06:52:44;6.10;;;4.17;;
803;SDS011;25687;49.976;8.240;2023-11-19T06:55:10;4.80;;;4.30;;
803;SDS011;25687;49.976;8.240;2023-11-19T06:57:35;5.43;;;4.93;;
803;SDS011;25687;49.976;8.240;2023-11-19T07:00:00;6.80;;;5.37;;
803;SDS011;25687;49.976;8.240;2023-11-19T07:02:26;8.30;;;5.23;;
803;SDS011;25687;49.976;8.240;2023-11-19T07:04:51;7.13;;;5.70;;
803;SDS011;25687;49.976;8.240;2023-11-19T07:07:16;6.77;;;5.83;;
803;SDS011;25687;49.976;8.240;2023-11-19T07:09:41;6.63;;;6.03;;
803;SDS011;25687;49.976;8.240;2023-11-19T07:12:07;10.10;;;7.20;;
803;SDS011;25687;49.976;8.240;2023-11-19T07:14:33;6.80;;;5.90;;
803;SDS011;25687;49.976;8.240;2023-11-19T07:16:59;12.17;;;6.47;;
803;SDS011;25687;49.976;8.240;2023-11-19T07:19:25;7.87;;;6.93;;
803;SDS011;25687;49.976;8.240;2023-11-19T07:21:50;8.30;;;6.13;;
803;SDS011;25687;49.976;8.240;2023-11-19T07:24:16;6.57;;;5.80;;
803;SDS011;25687;49.976;8.240;2023-11-19T07:26:45;11.07;;;7.37;;
803;SDS011;25687;49.976;8.240;2023-11-19T07:29:15;9.13;;;6.83;;
803;SDS011;25687;49.976;8.240;2023-11-19T07:31:41;8.63;;;6.70;;
803;SDS011;25687;49.976;8.240;2023-11-19T07:34:10;8.63;;;7.77;;
803;SDS011;25687;49.976;8.240;2023-11-19T07:36:36;7.97;;;7.17;;
803;SDS011;25687;49.976;8.240;2023-11-19T07:39:03;9.33;;;6.87;;
803;SDS011;25687;49.976;8.240;2023-11-19T07:41:29;9.00;;;8.10;;
803;SDS011;25687;49.976;8.240;2023-11-19T07:43:55;9.40;;;7.60;;
803;SDS011;25687;49.976;8.240;2023-11-19T07:46:20;10.23;;;8.63;;
803;SDS011;25687;49.976;8.240;2023-11-19T07:48:45;11.83;;;9.40;;
803;SDS011;25687;49.976;8.240;2023-11-19T07:51:14;12.23;;;9.17;;
803;SDS011;25687;49.976;8.240;2023-11-19T07:53:40;10.77;;;9.10;;
803;SDS011;25687;49.976;8.240;2023-11-19T07:56:06;13.73;;;10.13;;
803;SDS011;25687;49.976;8.240;2023-11-19T07:58:32;12.77;;;9.93;;
803;SDS011;25687;49.976;8.240;2023-11-19T08:00:57;15.07;;;10.17;;
803;SDS011;25687;49.976;8.240;2023-11-19T08:03:23;10.63;;;9.53;;
803;SDS011;25687;49.976;8.240;2023-11-19T08:05:48;13.30;;;10.53;;
803;SDS011;25687;49.976;8.240;2023-11-19T08:08:14;11.47;;;10.30;;
803;SDS011;25687;49.976;8.240;2023-11-19T08:10:40;11.20;;;9.53;;
803;SDS011;25687;49.976;8.240;2023-11-19T08:13:05;11.07;;;9.83;;
803;SDS011;25687;49.976;8.240;2023-11-19T08:15:32;16.67;;;11.93;;
803;SDS011;25687;49.976;8.240;2023-11-19T08:17:57;13.70;;;11.47;;
803;SDS011;25687;49.976;8.240;2023-11-19T08:20:22;15.10;;;12.30;;
803;SDS011;25687;49.976;8.240;2023-11-19T08:22:48;14.27;;;10.93;;
803;SDS011;25687;49.976;8.240;2023-11-19T08:25:13;12.20;;;8.67;;
803;SDS011;25687;49.976;8.240;2023-11-19T08:27:39;5.70;;;4.20;;
803;SDS011;25687;49.976;8.240;2023-11-19T08:30:04;4.60;;;3.03;;
803;SDS011;25687;49.976;8.240;2023-11-19T08:32:31;6.80;;;2.50;;
803;SDS011;25687;49.976;8.240;2023-11-19T08:34:57;6.07;;;2.20;;
803;SDS011;25687;49.976;8.240;2023-11-19T08:37:22;3.50;;;2.40;;
803;SDS011;25687;49.976;8.240;2023-11-19T08:39:48;4.83;;;2.43;;
803;SDS011;25687;49.976;8.240;2023-11-19T08:42:13;7.50;;;2.50;;
803;SDS011;25687;49.976;8.240;2023-11-19T08:44:39;6.07;;;1.60;;
803;SDS011;25687;49.976;8.240;2023-11-19T08:47:05;3.00;;;1.83;;
803;SDS011;25687;49.976;8.240;2023-11-19T08:49:30;4.20;;;1.90;;
803;SDS011;25687;49.976;8.240;2023-11-19T08:51:56;4.33;;;1.87;;
803;SDS011;25687;49.976;8.240;2023-11-19T08:54:21;4.60;;;2.20;;
803;SDS011;25687;49.976;8.240;2023-11-19T08:56:47;6.73;;;2.10;;
803;SDS011;25687;49.976;8.240;2023-11-19T08:59:13;2.00;;;1.30;;
803;SDS011;25687;49.976;8.240;2023-11-19T09:01:40;3.53;;;1.47;;
803;SDS011;25687;49.976;8.240;2023-11-19T09:04:05;4.60;;;1.70;;
803;SDS011;25687;49.976;8.240;2023-11-19T09:06:31;5.33;;;1.70;;
803;SDS011;25687;49.976;8.240;2023-11-19T09:08:56;6.70;;;1.47;;
803;SDS011;25687;49.976;8.240;2023-11-19T09:11:25;3.87;;;1.80;;
803;SDS011;25687;49.976;8.240;2023-11-19T09:13:50;3.43;;;1.13;;
803;SDS011;25687;49.976;8.240;2023-11-19T09:16:16;3.70;;;1.17;;
803;SDS011;25687;49.976;8.240;2023-11-19T09:18:41;6.57;;;1.40;;
803;SDS011;25687;49.976;8.240;2023-11-19T09:21:07;3.43;;;1.30;;
803;SDS011;25687;49.976;8.240;2023-11-19T09:23:32;3.07;;;1.30;;
803;SDS011;25687;49.976;8.240;2023-11-19T09:26:01;3.77;;;1.30;;
803;SDS011;25687;49.976;8.240;2023-11-19T09:28:26;5.20;;;1.87;;
803;SDS011;25687;49.976;8.240;2023-11-19T09:30:52;10.37;;;2.30;;
803;SDS011;25687;49.976;8.240;2023-11-19T09:33:17;6.63;;;1.90;;
803;SDS011;25687;49.976;8.240;2023-11-19T09:35:42;5.73;;;1.70;;
803;SDS011;25687;49.976;8.240;2023-11-19T09:38:07;4.77;;;1.70;;
803;SDS011;25687;49.976;8.240;2023-11-19T09:40:33;5.57;;;1.77;;
803;SDS011;25687;49.976;8.240;2023-11-19T09:42:58;3.53;;;1.73;;
803;SDS011;25687;49.976;8.240;2023-11-19T09:45:25;6.30;;;1.80;;
803;SDS011;25687;49.976;8.240;2023-11-19T09:47:52;6.67;;;2.10;;
803;SDS011;25687;49.976;8.240;2023-11-19T09:50:19;5.28;;;2.17;;
803;SDS011;25687;49.976;8.240;2023-11-19T09:52:46;7.60;;;2.20;;
803;SDS011;25687;49.976;8.240;2023-11-19T09:55:12;5.70;;;2.03;;
803;SDS011;25687;49.976;8.240;2023-11-19T09:57:38;5.65;;;1.90;;
803;SDS011;25687;49.976;8.240;2023-11-19T10:00:05;5.77;;;1.77;;
803;SDS011;25687;49.976;8.240;2023-11-19T10:02:33;5.80;;;2.20;;
803;SDS011;25687;49.976;8.240;2023-11-19T10:05:00;9.47;;;2.40;;
803;SDS011;25687;49.976;8.240;2023-11-19T10:07:30;12.83;;;3.43;;
803;SDS011;25687;49.976;8.240;2023-11-19T10:09:57;7.70;;;2.33;;
803;SDS011;25687;49.976;8.240;2023-11-19T10:12:23;7.97;;;2.13;;
803;SDS011;25687;49.976;8.240;2023-11-19T10:14:48;9.43;;;2.03;;
803;SDS011;25687;49.976;8.240;2023-11-19T10:17:16;8.20;;;2.23;;
803;SDS011;25687;49.976;8.240;2023-11-19T10:19:41;7.50;;;2.63;;
803;SDS011;25687;49.976;8.240;2023-11-19T10:22:06;6.00;;;2.70;;
803;SDS011;25687;49.976;8.240;2023-11-19T10:24:32;6.67;;;2.57;;
803;SDS011;25687;49.976;8.240;2023-11-19T10:26:59;8.83;;;2.53;;
803;SDS011;25687;49.976;8.240;2023-11-19T10:29:24;7.87;;;2.63;;
803;SDS011;25687;49.976;8.240;2023-11-19T10:31:56;6.23;;;1.93;;
803;SDS011;25687;49.976;8.240;2023-11-19T10:34:25;9.40;;;2.43;;
803;SDS011;25687;49.976;8.240;2023-11-19T10:36:52;7.67;;;2.63;;
803;SDS011;25687;49.976;8.240;2023-11-19T10:39:17;4.30;;;1.90;;
803;SDS011;25687;49.976;8.240;2023-11-19T10:41:43;6.57;;;1.97;;
803;SDS011;25687;49.976;8.240;2023-11-19T10:44:08;7.30;;;2.60;;
803;SDS011;25687;49.976;8.240;2023-11-19T10:46:40;8.53;;;2.20;;
803;SDS011;25687;49.976;8.240;2023-11-19T10:49:07;9.70;;;2.70;;
803;SDS011;25687;49.976;8.240;2023-11-19T10:51:33;6.97;;;2.50;;
803;SDS011;25687;49.976;8.240;2023-11-19T10:54:02;7.57;;;2.73;;
803;SDS011;25687;49.976;8.240;2023-11-19T10:56:31;8.83;;;2.33;;
803;SDS011;25687;49.976;8.240;2023-11-19T10:58:57;5.37;;;1.93;;
803;SDS011;25687;49.976;8.240;2023-11-19T11:01:26;11.03;;;2.40;;
803;SDS011;25687;49.976;8.240;2023-11-19T11:03:58;8.10;;;2.23;;
803;SDS011;25687;49.976;8.240;2023-11-19T11:06:26;8.67;;;2.53;;
803;SDS011;25687;49.976;8.240;2023-11-19T11:08:52;7.33;;;2.23;;
803;SDS011;25687;49.976;8.240;2023-11-19T11:11:19;7.33;;;2.70;;
803;SDS011;25687;49.976;8.240;2023-11-19T11:13:49;7.83;;;2.83;;
803;SDS011;25687;49.976;8.240;2023-11-19T11:16:15;12.53;;;2.40;;
803;SDS011;25687;49.976;8.240;2023-11-19T11:18:43;7.13;;;2.53;;
803;SDS011;25687;49.976;8.240;2023-11-19T11:21:11;7.57;;;2.07;;
803;SDS011;25687;49.976;8.240;2023-11-19T11:29:49;9.90;;;2.70;;
803;SDS011;25687;49.976;8.240;2023-11-19T11:40:01;11.90;;;2.00;;
803;SDS011;25687;49.976;8.240;2023-11-19T11:42:35;6.30;;;2.10;;
803;SDS011;25687;49.976;8.240;2023-11-19T11:45:08;5.43;;;1.80;;
803;SDS011;25687;49.976;8.240;2023-11-19T11:50:21;8.23;;;2.30;;
803;SDS011;25687;49.976;8.240;2023-11-19T11:56:08;5.20;;;1.90;;
803;SDS011;25687;49.976;8.240;2023-11-19T11:58:17;8.27;;;1.80;;
803;SDS011;25687;49.976;8.240;2023-11-19T12:00:42;5.67;;;1.70;;
803;SDS011;25687;49.976;8.240;2023-11-19T12:03:08;14.23;;;2.00;;
803;SDS011;25687;49.976;8.240;2023-11-19T12:05:44;7.13;;;2.27;;
803;SDS011;25687;49.976;8.240;2023-11-19T12:08:10;5.40;;;2.13;;
803;SDS011;25687;49.976;8.240;2023-11-19T12:13:14;6.43;;;2.10;;
803;SDS011;25687;49.976;8.240;2023-11-19T12:18:20;8.63;;;2.50;;
803;SDS011;25687;49.976;8.240;2023-11-19T12:20:47;8.03;;;2.07;;
803;SDS011;25687;49.976;8.240;2023-11-19T12:23:14;7.37;;;2.60;;
803;SDS011;25687;49.976;8.240;2023-11-19T12:25:39;7.30;;;2.13;;
803;SDS011;25687;49.976;8.240;2023-11-19T12:28:05;7.47;;;2.20;;
803;SDS011;25687;49.976;8.240;2023-11-19T12:30:30;8.53;;;2.63;;
803;SDS011;25687;49.976;8.240;2023-11-19T12:32:56;7.83;;;2.33;;
803;SDS011;25687;49.976;8.240;2023-11-19T12:35:21;5.57;;;2.20;;
803;SDS011;25687;49.976;8.240;2023-11-19T12:37:49;7.93;;;1.73;;
803;SDS011;25687;49.976;8.240;2023-11-19T12:42:48;9.10;;;2.60;;
803;SDS011;25687;49.976;8.240;2023-11-19T12:45:14;8.30;;;2.27;;
803;SDS011;25687;49.976;8.240;2023-11-19T12:47:41;10.70;;;2.43;;
803;SDS011;25687;49.976;8.240;2023-11-19T12:50:07;12.30;;;2.90;;
803;SDS011;25687;49.976;8.240;2023-11-19T12:52:34;9.70;;;2.73;;
803;SDS011;25687;49.976;8.240;2023-11-19T12:55:00;6.83;;;2.47;;
803;SDS011;25687;49.976;8.240;2023-11-19T12:57:39;7.97;;;2.53;;
803;SDS011;25687;49.976;8.240;2023-11-19T13:00:06;5.10;;;2.00;;
803;SDS011;25687;49.976;8.240;2023-11-19T13:02:44;7.03;;;2.50;;
803;SDS011;25687;49.976;8.240;2023-11-19T13:05:25;9.40;;;2.17;;
803;SDS011;25687;49.976;8.240;2023-11-19T13:08:04;9.90;;;2.63;;
803;SDS011;25687;49.976;8.240;2023-11-19T13:10:52;8.17;;;2.70;;
803;SDS011;25687;49.976;8.240;2023-11-19T13:13:20;10.03;;;2.17;;
803;SDS011;25687;49.976;8.240;2023-11-19T13:15:45;8.70;;;2.30;;
803;SDS011;25687;49.976;8.240;2023-11-19T13:18:11;5.83;;;1.93;;
803;SDS011;25687;49.976;8.240;2023-11-19T13:20:37;8.60;;;2.37;;
803;SDS011;25687;49.976;8.240;2023-11-19T13:23:04;9.70;;;2.47;;
803;SDS011;25687;49.976;8.240;2023-11-19T13:25:30;6.50;;;2.43;;
803;SDS011;25687;49.976;8.240;2023-11-19T13:27:57;9.13;;;2.40;;
803;SDS011;25687;49.976;8.240;2023-11-19T13:30:23;6.30;;;2.30;;
803;SDS011;25687;49.976;8.240;2023-11-19T13:32:49;7.87;;;2.07;;
803;SDS011;25687;49.976;8.240;2023-11-19T13:35:16;6.97;;;2.20;;
803;SDS011;25687;49.976;8.240;2023-11-19T13:37:42;8.33;;;2.33;;
803;SDS011;25687;49.976;8.240;2023-11-19T13:40:08;7.03;;;1.87;;
803;SDS011;25687;49.976;8.240;2023-11-19T13:42:35;4.60;;;1.93;;
803;SDS011;25687;49.976;8.240;2023-11-19T13:45:02;10.70;;;2.90;;
803;SDS011;25687;49.976;8.240;2023-11-19T13:47:28;11.80;;;2.70;;
803;SDS011;25687;49.976;8.240;2023-11-19T13:49:53;8.07;;;2.33;;
803;SDS011;25687;49.976;8.240;2023-11-19T13:52:18;7.80;;;2.07;;
803;SDS011;25687;49.976;8.240;2023-11-19T13:54:44;6.20;;;2.43;;
803;SDS011;25687;49.976;8.240;2023-11-19T13:57:09;11.67;;;2.53;;
803;SDS011;25687;49.976;8.240;2023-11-19T13:59:39;9.53;;;2.80;;
803;SDS011;25687;49.976;8.240;2023-11-19T14:02:05;14.23;;;3.20;;
803;SDS011;25687;49.976;8.240;2023-11-19T14:04:32;9.13;;;2.60;;
803;SDS011;25687;49.976;8.240;2023-11-19T14:06:57;9.80;;;2.70;;
803;SDS011;25687;49.976;8.240;2023-11-19T14:09:23;10.17;;;2.43;;
803;SDS011;25687;49.976;8.240;2023-11-19T14:11:48;5.77;;;2.30;;
803;SDS011;25687;49.976;8.240;2023-11-19T14:14:16;7.10;;;2.60;;
803;SDS011;25687;49.976;8.240;2023-11-19T14:16:41;8.47;;;2.47;;
803;SDS011;25687;49.976;8.240;2023-11-19T14:19:06;8.23;;;2.73;;
803;SDS011;25687;49.976;8.240;2023-11-19T14:21:32;11.43;;;3.30;;
803;SDS011;25687;49.976;8.240;2023-11-19T14:23:57;10.57;;;3.10;;
803;SDS011;25687;49.976;8.240;2023-11-19T14:26:22;5.47;;;2.40;;
803;SDS011;25687;49.976;8.240;2023-11-19T14:28:48;8.53;;;2.63;;
803;SDS011;25687;49.976;8.240;2023-11-19T14:31:13;8.50;;;2.47;;
803;SDS011;25687;49.976;8.240;2023-11-19T14:33:38;7.70;;;2.87;;
803;SDS011;25687;49.976;8.240;2023-11-19T14:36:03;9.73;;;2.63;;
803;SDS011;25687;49.976;8.240;2023-11-19T14:38:29;8.57;;;2.63;;
803;SDS011;25687;49.976;8.240;2023-11-19T14:40:54;7.17;;;2.53;;
803;SDS011;25687;49.976;8.240;2023-11-19T14:43:20;10.53;;;3.07;;
803;SDS011;25687;49.976;8.240;2023-11-19T14:45:45;12.50;;;2.70;;
803;SDS011;25687;49.976;8.240;2023-11-19T14:48:10;8.83;;;2.53;;
803;SDS011;25687;49.976;8.240;2023-11-19T14:50:36;7.90;;;2.30;;
803;SDS011;25687;49.976;8.240;2023-11-19T14:53:01;7.00;;;1.83;;
803;SDS011;25687;49.976;8.240;2023-11-19T14:55:27;10.60;;;2.93;;
803;SDS011;25687;49.976;8.240;2023-11-19T14:57:52;7.03;;;2.20;;
803;SDS011;25687;49.976;8.240;2023-11-19T15:00:17;6.50;;;2.33;;
803;SDS011;25687;49.976;8.240;2023-11-19T15:02:43;8.33;;;2.23;;
803;SDS011;25687;49.976;8.240;2023-11-19T15:05:08;11.67;;;2.67;;
803;SDS011;25687;49.976;8.240;2023-11-19T15:07:37;7.17;;;2.20;;
803;SDS011;25687;49.976;8.240;2023-11-19T15:10:05;8.03;;;2.23;;
803;SDS011;25687;49.976;8.240;2023-11-19T15:12:36;9.03;;;2.50;;
803;SDS011;25687;49.976;8.240;2023-11-19T15:15:04;11.17;;;2.30;;
803;SDS011;25687;49.976;8.240;2023-11-19T15:17:34;6.40;;;2.07;;
803;SDS011;25687;49.976;8.240;2023-11-19T15:20:00;8.17;;;2.20;;
803;SDS011;25687;49.976;8.240;2023-11-19T15:22:27;9.23;;;2.87;;
803;SDS011;25687;49.976;8.240;2023-11-19T15:24:53;12.63;;;2.70;;
803;SDS011;25687;49.976;8.240;2023-11-19T15:27:18;6.70;;;2.20;;
803;SDS011;25687;49.976;8.240;2023-11-19T15:29:43;8.90;;;3.07;;
803;SDS011;25687;49.976;8.240;2023-11-19T15:32:09;5.73;;;2.30;;
803;SDS011;25687;49.976;8.240;2023-11-19T15:34:34;9.20;;;2.50;;